createdAt,value
2023-04-02T00:00:16.468Z,41.61
2023-04-02T00:01:15.652Z,41.65
2023-04-02T00:02:15.702Z,41.99
2023-04-02T00:03:15.760Z,42.37
2023-04-02T00:04:15.787Z,42.36
2023-04-02T00:05:15.826Z,41.52
2023-04-02T00:06:15.874Z,43.69
2023-04-02T00:07:15.940Z,44.93
2023-04-02T00:08:15.986Z,45.30
2023-04-02T00:09:16.047Z,43.77
2023-04-02T00:10:16.103Z,43.41
2023-04-02T00:11:16.153Z,41.80
2023-04-02T00:12:16.214Z,44.54
2023-04-02T00:13:17.068Z,41.71
2023-04-02T00:14:16.392Z,40.76
2023-04-02T00:15:16.378Z,45.13
2023-04-02T00:16:16.451Z,46.71
2023-04-02T00:17:16.502Z,45.15
2023-04-02T00:18:16.613Z,44.74
2023-04-02T00:19:16.611Z,43.52
2023-04-02T00:20:16.680Z,45.77
2023-04-02T00:21:17.486Z,42.06
2023-04-02T00:22:16.795Z,42.99
2023-04-02T00:23:17.480Z,46.64
2023-04-02T00:24:16.913Z,45.29
2023-04-02T00:25:16.958Z,45.62
2023-04-02T00:26:17.034Z,46.78
2023-04-02T00:27:17.088Z,45.35
2023-04-02T00:28:17.147Z,44.24
2023-04-02T00:29:17.204Z,43.25
2023-04-02T00:30:17.264Z,44.79
2023-04-02T00:31:17.326Z,44.43
2023-04-02T00:32:17.440Z,47.03
2023-04-02T00:33:17.501Z,41.04
2023-04-02T00:34:17.513Z,45.57
2023-04-02T00:35:17.573Z,42.67
2023-04-02T00:36:17.671Z,45.11
2023-04-02T00:37:17.832Z,45.94
2023-04-02T00:38:17.747Z,43.01
2023-04-02T00:39:17.818Z,44.39
2023-04-02T00:40:17.868Z,43.04
2023-04-02T00:41:18.000Z,44.11
2023-04-02T00:42:17.980Z,44.28
2023-04-02T00:43:18.039Z,48.08
2023-04-02T00:44:18.105Z,43.25
2023-04-02T00:45:18.162Z,42.49
2023-04-02T00:46:18.278Z,46.25
2023-04-02T00:47:18.283Z,49.96
2023-04-02T00:48:18.343Z,45.48
2023-04-02T00:49:18.410Z,48.59
2023-04-02T00:50:18.473Z,50.15
2023-04-02T00:51:18.532Z,49.09
2023-04-02T00:52:18.594Z,44.96
2023-04-02T00:53:18.656Z,46.32
2023-04-02T00:54:18.721Z,48.21
2023-04-02T00:55:21.497Z,47.53
2023-04-02T00:56:18.774Z,46.84
2023-04-02T00:57:18.805Z,46.15
2023-04-02T00:58:18.751Z,42.54
2023-04-02T00:59:18.736Z,44.66
2023-04-02T01:00:18.736Z,46.78
2023-04-02T01:01:18.762Z,44.89
2023-04-02T01:02:18.792Z,46.41
2023-04-02T01:03:18.831Z,42.63
2023-04-02T01:04:18.696Z,44.86
2023-04-02T01:05:18.676Z,41.72
2023-04-02T01:06:18.661Z,46.40
2023-04-02T01:07:18.656Z,43.36
2023-04-02T01:08:18.689Z,45.67
2023-04-02T01:09:18.634Z,44.38
2023-04-02T01:10:18.642Z,46.60
2023-04-02T01:11:18.622Z,45.98
2023-04-02T01:12:18.629Z,48.62
2023-04-02T01:13:18.589Z,46.79
2023-04-02T01:14:18.575Z,45.35
2023-04-02T01:15:18.576Z,45.02
2023-04-02T01:16:18.581Z,44.43
2023-04-02T01:17:18.588Z,43.89
2023-04-02T01:18:18.533Z,46.06
2023-04-02T01:19:18.513Z,45.64
2023-04-02T01:20:18.509Z,48.62
2023-04-02T01:21:18.500Z,47.65
2023-04-02T01:22:18.500Z,44.68
2023-04-02T01:23:18.489Z,45.42
2023-04-02T01:24:18.482Z,47.36
2023-04-02T01:25:18.461Z,44.96
2023-04-02T01:26:18.455Z,46.48
2023-04-02T01:27:18.442Z,45.61
2023-04-02T01:28:18.443Z,45.95
2023-04-02T01:29:18.466Z,44.93
2023-04-02T01:30:18.407Z,46.85
2023-04-02T01:31:18.428Z,49.34
2023-04-02T01:32:18.405Z,45.27
2023-04-02T01:33:18.434Z,44.29
2023-04-02T01:34:18.543Z,45.94
2023-04-02T01:35:18.540Z,41.16
2023-04-02T01:36:18.597Z,42.22
2023-04-02T01:37:18.656Z,46.75
2023-04-02T01:38:18.703Z,41.86
2023-04-02T01:39:18.755Z,40.85
2023-04-02T01:40:18.813Z,46.50
2023-04-02T01:41:18.863Z,44.45
2023-04-02T01:42:18.941Z,45.20
2023-04-02T01:43:18.979Z,42.33
2023-04-02T01:44:19.084Z,42.03
2023-04-02T01:45:19.085Z,44.33
2023-04-02T01:46:19.169Z,39.36
2023-04-02T01:47:19.247Z,43.82
2023-04-02T01:48:19.266Z,43.65
2023-04-02T01:49:20.006Z,40.61
2023-04-02T01:50:19.476Z,46.04
2023-04-02T01:51:19.442Z,42.81
2023-04-02T01:52:19.513Z,43.77
2023-04-02T01:53:19.525Z,42.64
2023-04-02T01:54:20.510Z,41.74
2023-04-02T01:55:19.624Z,39.52
2023-04-02T01:56:19.620Z,45.77
2023-04-02T01:57:19.744Z,44.44
2023-04-02T01:58:19.683Z,42.66
2023-04-02T01:59:19.734Z,41.55
2023-04-02T02:00:19.775Z,40.75
2023-04-02T02:01:20.027Z,42.93
2023-04-02T02:02:19.865Z,41.69
2023-04-02T02:03:19.920Z,41.37
2023-04-02T02:04:19.893Z,43.20
2023-04-02T02:05:19.913Z,44.08
2023-04-02T02:06:19.941Z,43.47
2023-04-02T02:07:19.981Z,41.66
2023-04-02T02:08:20.531Z,43.24
2023-04-02T02:09:20.048Z,44.52
2023-04-02T02:10:20.107Z,40.87
2023-04-02T02:11:20.174Z,42.28
2023-04-02T02:12:20.160Z,40.73
2023-04-02T02:13:20.189Z,42.48
2023-04-02T02:14:21.019Z,45.12
2023-04-02T02:15:20.289Z,41.91
2023-04-02T02:16:20.405Z,41.63
2023-04-02T02:17:20.400Z,43.28
2023-04-02T02:18:20.446Z,41.10
2023-04-02T02:19:20.484Z,37.59
2023-04-02T02:20:20.527Z,41.13
2023-04-02T02:21:20.567Z,39.36
2023-04-02T02:22:20.629Z,38.78
2023-04-02T02:23:20.646Z,40.12
2023-04-02T02:24:20.718Z,40.38
2023-04-02T02:25:20.708Z,38.56
2023-04-02T02:26:20.736Z,40.59
2023-04-02T02:27:20.757Z,40.30
2023-04-02T02:28:20.791Z,40.49
2023-04-02T02:29:20.836Z,40.62
2023-04-02T02:30:20.878Z,40.35
2023-04-02T02:31:20.910Z,40.54
2023-04-02T02:32:20.985Z,37.24
2023-04-02T02:33:20.973Z,40.86
2023-04-02T02:34:20.998Z,41.60
2023-04-02T02:35:21.036Z,42.12
2023-04-02T02:36:21.135Z,40.19
2023-04-02T02:37:22.031Z,40.86
2023-04-02T02:38:21.147Z,39.87
2023-04-02T02:39:21.198Z,42.55
2023-04-02T02:40:21.229Z,37.49
2023-04-02T02:41:21.278Z,38.89
2023-04-02T02:42:21.302Z,39.41
2023-04-02T02:43:21.354Z,41.20
2023-04-02T02:44:21.401Z,42.02
2023-04-02T02:45:21.447Z,41.53
2023-04-02T02:46:21.514Z,37.98
2023-04-02T02:47:21.560Z,40.33
2023-04-02T02:48:21.561Z,40.76
2023-04-02T02:49:21.630Z,40.15
2023-04-02T02:50:21.650Z,40.38
2023-04-02T02:51:21.695Z,39.30
2023-04-02T02:52:21.737Z,39.51
2023-04-02T02:53:21.800Z,37.32
2023-04-02T02:54:21.834Z,39.99
2023-04-02T02:55:21.870Z,39.53
2023-04-02T02:56:21.893Z,37.39
2023-04-02T02:57:21.946Z,38.92
2023-04-02T02:58:21.965Z,38.83
2023-04-02T02:59:21.991Z,36.66
2023-04-02T03:00:22.037Z,38.90
2023-04-02T03:01:22.095Z,39.68
2023-04-02T03:02:22.169Z,39.10
2023-04-02T03:03:22.288Z,39.04
2023-04-02T03:04:22.193Z,37.26
2023-04-02T03:05:22.224Z,36.80
2023-04-02T03:06:22.243Z,38.43
2023-04-02T03:07:22.272Z,40.47
2023-04-02T03:08:22.305Z,38.95
2023-04-02T03:09:22.339Z,39.70
2023-04-02T03:10:22.379Z,40.19
2023-04-02T03:11:22.398Z,41.28
2023-04-02T03:12:22.435Z,41.40
2023-04-02T03:13:22.473Z,38.54
2023-04-02T03:14:22.496Z,36.80
2023-04-02T03:15:22.517Z,37.49
2023-04-02T03:16:22.702Z,39.62
2023-04-02T03:17:22.584Z,39.03
2023-04-02T03:18:22.593Z,35.10
2023-04-02T03:19:22.621Z,36.95
2023-04-02T03:20:22.653Z,38.23
2023-04-02T03:21:22.679Z,36.91
2023-04-02T03:22:22.733Z,36.54
2023-04-02T03:23:22.762Z,39.92
2023-04-02T03:24:22.793Z,36.95
2023-04-02T03:25:22.844Z,39.85
2023-04-02T03:26:22.892Z,36.52
2023-04-02T03:27:22.929Z,39.14
2023-04-02T03:28:22.963Z,37.80
2023-04-02T03:29:22.980Z,35.36
2023-04-02T03:30:23.011Z,39.11
2023-04-02T03:31:23.053Z,39.31
2023-04-02T03:32:23.058Z,36.59
2023-04-02T03:33:23.096Z,39.19
2023-04-02T03:34:23.119Z,40.95
2023-04-02T03:35:23.187Z,39.77
2023-04-02T03:36:23.237Z,38.80
2023-04-02T03:37:23.239Z,36.81
2023-04-02T03:38:23.319Z,40.39
2023-04-02T03:39:23.337Z,34.31
2023-04-02T03:40:23.364Z,36.10
2023-04-02T03:41:23.412Z,37.79
2023-04-02T03:42:23.453Z,38.03
2023-04-02T03:43:23.493Z,40.88
2023-04-02T03:44:23.541Z,38.96
2023-04-02T03:45:23.568Z,38.32
2023-04-02T03:46:23.705Z,36.55
2023-04-02T03:47:23.694Z,40.21
2023-04-02T03:48:23.706Z,41.20
2023-04-02T03:49:23.746Z,42.43
2023-04-02T03:50:23.784Z,36.42
2023-04-02T03:51:23.816Z,38.26
2023-04-02T03:52:23.863Z,37.58
2023-04-02T03:53:23.895Z,37.94
2023-04-02T03:54:23.958Z,37.59
2023-04-02T03:55:24.012Z,41.10
2023-04-02T03:56:24.021Z,39.69
2023-04-02T03:57:24.105Z,37.41
2023-04-02T03:58:24.094Z,39.69
2023-04-02T03:59:24.124Z,37.91
2023-04-02T04:00:24.175Z,39.48
2023-04-02T04:01:24.242Z,39.85
2023-04-02T04:02:24.387Z,38.69
2023-04-02T04:03:24.285Z,40.92
2023-04-02T04:04:24.345Z,39.85
2023-04-02T04:05:24.347Z,37.57
2023-04-02T04:06:24.391Z,34.15
2023-04-02T04:07:24.431Z,40.57
2023-04-02T04:08:24.462Z,41.77
2023-04-02T04:09:24.491Z,39.97
2023-04-02T04:10:24.532Z,38.12
2023-04-02T04:11:24.602Z,39.55
2023-04-02T04:12:24.594Z,41.03
2023-04-02T04:13:24.628Z,34.60
2023-04-02T04:14:24.660Z,37.74
2023-04-02T04:15:24.699Z,36.94
2023-04-02T04:16:24.766Z,41.96
2023-04-02T04:17:24.875Z,36.26
2023-04-02T04:18:24.789Z,37.58
2023-04-02T04:19:24.807Z,36.59
2023-04-02T04:20:24.901Z,38.81
2023-04-02T04:21:24.902Z,40.55
2023-04-02T04:22:24.912Z,36.91
2023-04-02T04:23:24.952Z,38.57
2023-04-02T04:24:24.972Z,35.16
2023-04-02T04:25:24.988Z,36.44
2023-04-02T04:26:25.025Z,38.66
2023-04-02T04:27:25.045Z,36.38
2023-04-02T04:28:25.082Z,36.95
2023-04-02T04:29:25.108Z,36.90
2023-04-02T04:30:25.150Z,39.19
2023-04-02T04:31:26.101Z,34.87
2023-04-02T04:32:25.242Z,38.23
2023-04-02T04:33:25.260Z,35.16
2023-04-02T04:34:25.315Z,33.73
2023-04-02T04:35:25.327Z,35.16
2023-04-02T04:36:25.357Z,38.80
2023-04-02T04:37:25.381Z,36.62
2023-04-02T04:38:25.419Z,35.53
2023-04-02T04:39:25.452Z,34.55
2023-04-02T04:40:25.482Z,34.33
2023-04-02T04:41:25.526Z,33.90
2023-04-02T04:42:25.612Z,32.64
2023-04-02T04:43:25.604Z,38.41
2023-04-02T04:44:25.625Z,37.31
2023-04-02T04:45:25.672Z,35.69
2023-04-02T04:46:25.809Z,34.83
2023-04-02T04:47:26.671Z,37.84
2023-04-02T04:48:25.758Z,36.94
2023-04-02T04:49:25.778Z,37.24
2023-04-02T04:50:25.819Z,35.35
2023-04-02T04:51:25.864Z,38.47
2023-04-02T04:52:25.917Z,33.90
2023-04-02T04:53:25.918Z,34.75
2023-04-02T04:54:25.963Z,33.41
2023-04-02T04:55:25.990Z,36.03
2023-04-02T04:56:26.030Z,34.28
2023-04-02T04:57:26.198Z,33.90
2023-04-02T04:58:26.101Z,36.70
2023-04-02T04:59:26.134Z,36.80
2023-04-02T05:00:26.170Z,38.56
2023-04-02T05:01:26.253Z,38.02
2023-04-02T05:02:26.292Z,35.13
2023-04-02T05:03:26.296Z,35.99
2023-04-02T05:04:26.408Z,33.37
2023-04-02T05:05:27.077Z,33.03
2023-04-02T05:06:26.591Z,32.45
2023-04-02T05:07:26.446Z,32.42
2023-04-02T05:08:26.486Z,35.59
2023-04-02T05:09:26.535Z,29.97
2023-04-02T05:10:26.564Z,33.05
2023-04-02T05:11:26.600Z,33.70
2023-04-02T05:12:26.636Z,34.66
2023-04-02T05:13:26.664Z,36.63
2023-04-02T05:14:26.683Z,33.42
2023-04-02T05:15:26.710Z,36.25
2023-04-02T05:16:26.777Z,33.73
2023-04-02T05:17:26.860Z,29.93
2023-04-02T05:18:26.816Z,33.50
2023-04-02T05:19:27.586Z,32.17
2023-04-02T05:20:26.881Z,28.66
2023-04-02T05:21:26.895Z,32.76
2023-04-02T05:22:26.918Z,33.54
2023-04-02T05:23:26.976Z,34.44
2023-04-02T05:24:26.995Z,33.63
2023-04-02T05:25:27.055Z,32.34
2023-04-02T05:26:27.061Z,29.05
2023-04-02T05:27:27.111Z,30.87
2023-04-02T05:28:27.137Z,32.18
2023-04-02T05:29:27.175Z,30.04
2023-04-02T05:30:27.215Z,31.43
2023-04-02T05:31:27.312Z,32.76
2023-04-02T05:32:27.279Z,32.37
2023-04-02T05:33:27.317Z,34.53
2023-04-02T05:34:27.358Z,33.65
2023-04-02T05:35:27.400Z,33.07
2023-04-02T05:36:27.472Z,33.64
2023-04-02T05:37:27.513Z,32.03
2023-04-02T05:38:27.612Z,28.45
2023-04-02T05:39:27.656Z,31.07
2023-04-02T05:40:27.685Z,31.28
2023-04-02T05:41:27.675Z,29.21
2023-04-02T05:42:27.734Z,27.96
2023-04-02T05:43:27.710Z,34.63
2023-04-02T05:44:27.827Z,31.64
2023-04-02T05:45:27.853Z,30.73
2023-04-02T05:46:27.827Z,29.47
2023-04-02T05:47:27.891Z,32.45
2023-04-02T05:48:27.914Z,31.33
2023-04-02T05:49:27.932Z,30.64
2023-04-02T05:50:27.972Z,32.14
2023-04-02T05:51:28.003Z,29.45
2023-04-02T05:52:28.065Z,31.48
2023-04-02T05:53:28.090Z,32.42
2023-04-02T05:54:28.607Z,30.48
2023-04-02T05:55:28.175Z,28.21
2023-04-02T05:56:28.210Z,28.31
2023-04-02T05:57:42.706Z,32.54
2023-04-02T05:58:35.337Z,32.66
2023-04-02T05:59:29.240Z,32.72
2023-04-02T06:00:28.243Z,33.53
2023-04-02T06:01:28.249Z,34.28
2023-04-02T06:02:28.381Z,31.91
2023-04-02T06:03:28.287Z,33.94
2023-04-02T06:04:28.224Z,32.28
2023-04-02T06:05:28.223Z,34.13
2023-04-02T06:06:28.237Z,29.87
2023-04-02T06:07:28.231Z,31.89
2023-04-02T06:08:28.219Z,29.04
2023-04-02T06:09:28.218Z,32.74
2023-04-02T06:10:28.215Z,32.99
2023-04-02T06:11:29.107Z,28.77
2023-04-02T06:12:28.210Z,30.01
2023-04-02T06:13:28.208Z,32.13
2023-04-02T06:14:28.196Z,31.36
2023-04-02T06:15:28.201Z,30.93
2023-04-02T06:16:28.228Z,27.88
2023-04-02T06:17:28.215Z,27.71
2023-04-02T06:18:28.193Z,31.21
2023-04-02T06:19:28.191Z,31.52
2023-04-02T06:20:28.264Z,29.54
2023-04-02T06:21:28.189Z,31.76
2023-04-02T06:22:28.196Z,34.63
2023-04-02T06:23:28.192Z,27.50
2023-04-02T06:24:28.194Z,31.11
2023-04-02T06:25:28.212Z,27.51
2023-04-02T06:26:28.209Z,33.19
2023-04-02T06:27:28.190Z,33.21
2023-04-02T06:28:28.201Z,32.00
2023-04-02T06:29:28.191Z,28.83
2023-04-02T06:30:28.286Z,30.08
2023-04-02T06:31:29.124Z,28.92
2023-04-02T06:32:28.353Z,29.08
2023-04-02T06:33:28.253Z,30.02
2023-04-02T06:34:28.287Z,30.20
2023-04-02T06:35:28.329Z,27.14
2023-04-02T06:36:28.377Z,29.03
2023-04-02T06:37:28.400Z,28.56
2023-04-02T06:38:28.622Z,31.12
2023-04-02T06:39:28.485Z,27.56
2023-04-02T06:40:28.548Z,28.62
2023-04-02T06:41:28.566Z,27.81
2023-04-02T06:42:28.612Z,29.41
2023-04-02T06:43:28.641Z,29.80
2023-04-02T06:44:28.686Z,30.26
2023-04-02T06:45:28.748Z,30.80
2023-04-02T06:46:28.870Z,31.70
2023-04-02T06:47:28.862Z,31.33
2023-04-02T06:48:28.841Z,30.92
2023-04-02T06:49:28.862Z,28.32
2023-04-02T06:50:28.908Z,28.78
2023-04-02T06:51:29.018Z,30.80
2023-04-02T06:52:29.061Z,29.60
2023-04-02T06:53:29.119Z,30.82
2023-04-02T06:54:29.161Z,30.09
2023-04-02T06:55:30.187Z,29.92
2023-04-02T06:56:29.265Z,30.52
2023-04-02T06:57:29.366Z,29.55
2023-04-02T06:58:29.361Z,30.77
2023-04-02T06:59:29.400Z,31.92
2023-04-02T07:00:29.435Z,31.66
2023-04-02T07:01:29.511Z,31.93
2023-04-02T07:02:29.521Z,30.78
2023-04-02T07:03:29.534Z,30.97
2023-04-02T07:04:29.591Z,31.58
2023-04-02T07:05:29.536Z,30.20
2023-04-02T07:06:29.597Z,31.40
2023-04-02T07:07:29.537Z,30.51
2023-04-02T07:08:29.536Z,32.22
2023-04-02T07:09:29.516Z,32.04
2023-04-02T07:10:29.514Z,29.61
2023-04-02T07:11:29.498Z,31.35
2023-04-02T07:12:29.483Z,28.50
2023-04-02T07:13:29.503Z,31.18
2023-04-02T07:14:29.524Z,31.72
2023-04-02T07:15:29.572Z,30.75
2023-04-02T07:16:29.613Z,29.25
2023-04-02T07:17:29.673Z,29.56
2023-04-02T07:18:29.742Z,30.22
2023-04-02T07:19:29.743Z,32.76
2023-04-02T07:20:29.803Z,30.08
2023-04-02T07:21:29.870Z,28.59
2023-04-02T07:22:29.882Z,27.11
2023-04-02T07:23:29.914Z,31.30
2023-04-02T07:24:29.934Z,29.30
2023-04-02T07:25:29.967Z,29.06
2023-04-02T07:26:29.973Z,31.95
2023-04-02T07:27:29.997Z,28.85
2023-04-02T07:28:30.013Z,31.41
2023-04-02T07:29:30.024Z,29.46
2023-04-02T07:30:30.023Z,27.71
2023-04-02T07:31:30.060Z,28.64
2023-04-02T07:32:30.081Z,29.55
2023-04-02T07:33:30.029Z,26.12
2023-04-02T07:34:30.013Z,29.04
2023-04-02T07:35:30.000Z,29.16
2023-04-02T07:36:30.009Z,28.42
2023-04-02T07:37:29.994Z,28.47
2023-04-02T07:38:29.998Z,29.22
2023-04-02T07:39:29.968Z,28.05
2023-04-02T07:40:29.965Z,29.89
2023-04-02T07:41:29.942Z,28.60
2023-04-02T07:42:29.927Z,27.84
2023-04-02T07:43:29.911Z,30.20
2023-04-02T07:44:29.901Z,28.35
2023-04-02T07:45:29.907Z,29.92
2023-04-02T07:46:29.953Z,27.70
2023-04-02T07:47:29.960Z,30.22
2023-04-02T07:48:30.000Z,28.88
2023-04-02T07:49:29.986Z,30.87
2023-04-02T07:50:30.020Z,29.75
2023-04-02T07:51:30.046Z,31.17
2023-04-02T07:52:30.086Z,30.17
2023-04-02T07:53:30.248Z,30.25
2023-04-02T07:54:30.187Z,32.68
2023-04-02T07:55:30.208Z,30.89
2023-04-02T07:56:30.249Z,30.89
2023-04-02T07:57:30.418Z,33.68
2023-04-02T07:58:30.654Z,32.20
2023-04-02T07:59:30.418Z,30.01
2023-04-02T08:00:30.481Z,32.69
2023-04-02T08:01:30.496Z,32.78
2023-04-02T08:02:30.613Z,32.22
2023-04-02T08:03:30.678Z,32.79
2023-04-02T08:04:30.598Z,32.29
2023-04-02T08:05:30.650Z,33.38
2023-04-02T08:06:30.708Z,31.83
2023-04-02T08:07:30.745Z,32.99
2023-04-02T08:08:30.848Z,33.43
2023-04-02T08:09:30.831Z,33.58
2023-04-02T08:10:30.853Z,33.60
2023-04-02T08:11:31.827Z,33.45
2023-04-02T08:12:30.961Z,34.97
2023-04-02T08:13:30.988Z,33.51
2023-04-02T08:14:31.031Z,34.94
2023-04-02T08:15:31.065Z,31.61
2023-04-02T08:16:31.130Z,33.37
2023-04-02T08:17:31.256Z,34.01
2023-04-02T08:18:31.179Z,33.96
2023-04-02T08:19:31.910Z,34.81
2023-04-02T08:20:31.233Z,34.35
2023-04-02T08:21:31.281Z,35.79
2023-04-02T08:22:31.317Z,36.45
2023-04-02T08:23:31.390Z,35.90
2023-04-02T08:24:31.420Z,35.52
2023-04-02T08:25:31.430Z,34.81
2023-04-02T08:26:31.410Z,37.60
2023-04-02T08:27:31.414Z,35.07
2023-04-02T08:28:31.423Z,34.55
2023-04-02T08:29:31.398Z,34.83
2023-04-02T08:30:31.512Z,35.18
2023-04-02T08:31:31.407Z,36.00
2023-04-02T08:32:31.447Z,39.79
2023-04-02T08:33:31.440Z,37.80
2023-04-02T08:34:31.436Z,39.23
2023-04-02T08:35:31.486Z,37.71
2023-04-02T08:36:31.468Z,37.72
2023-04-02T08:37:31.492Z,40.17
2023-04-02T08:38:31.521Z,39.84
2023-04-02T08:39:31.558Z,38.68
2023-04-02T08:40:31.570Z,38.62
2023-04-02T08:41:31.609Z,39.15
2023-04-02T08:42:31.643Z,41.19
2023-04-02T08:43:31.674Z,40.49
2023-04-02T08:44:31.717Z,40.03
2023-04-02T08:45:31.756Z,41.30
2023-04-02T08:46:31.935Z,39.44
2023-04-02T08:47:32.724Z,41.41
2023-04-02T08:48:31.864Z,40.34
2023-04-02T08:49:31.898Z,40.31
2023-04-02T08:50:31.932Z,41.62
2023-04-02T08:51:31.973Z,39.42
2023-04-02T08:52:32.031Z,40.52
2023-04-02T08:53:32.072Z,38.74
2023-04-02T08:54:32.105Z,41.19
2023-04-02T08:55:32.201Z,39.75
2023-04-02T08:56:32.191Z,41.74
2023-04-02T08:57:32.359Z,41.52
2023-04-02T08:58:32.272Z,38.98
2023-04-02T08:59:32.324Z,39.49
2023-04-02T09:00:32.358Z,42.25
2023-04-02T09:01:32.460Z,40.12
2023-04-02T09:02:32.490Z,40.97
2023-04-02T09:03:32.498Z,40.75
2023-04-02T09:04:32.727Z,41.60
2023-04-02T09:05:32.617Z,41.01
2023-04-02T09:06:32.636Z,41.13
2023-04-02T09:07:32.697Z,42.95
2023-04-02T09:08:33.683Z,40.96
2023-04-02T09:09:33.171Z,40.23
2023-04-02T09:10:32.833Z,40.82
2023-04-02T09:11:32.881Z,42.73
2023-04-02T09:12:33.009Z,40.93
2023-04-02T09:13:32.982Z,40.91
2023-04-02T09:14:33.020Z,39.12
2023-04-02T09:15:33.279Z,38.81
2023-04-02T09:16:33.137Z,39.05
2023-04-02T09:17:42.707Z,40.46
2023-04-02T09:18:34.202Z,40.57
2023-04-02T09:19:33.121Z,40.92
2023-04-02T09:20:33.104Z,40.75
2023-04-02T09:21:33.087Z,41.20
2023-04-02T09:22:33.062Z,40.78
2023-04-02T09:23:33.056Z,40.67
2023-04-02T09:24:33.036Z,41.16
2023-04-02T09:25:33.251Z,40.26
2023-04-02T09:26:33.001Z,39.21
2023-04-02T09:27:33.024Z,41.29
2023-04-02T09:28:33.081Z,40.09
2023-04-02T09:29:33.101Z,41.40
2023-04-02T09:30:33.144Z,39.23
2023-04-02T09:31:33.181Z,38.62
2023-04-02T09:32:33.221Z,34.91
2023-04-02T09:33:33.228Z,38.54
2023-04-02T09:34:33.265Z,37.94
2023-04-02T09:35:33.326Z,37.38
2023-04-02T09:36:33.330Z,38.90
2023-04-02T09:37:33.332Z,36.97
2023-04-02T09:38:33.360Z,36.99
2023-04-02T09:39:33.380Z,39.09
2023-04-02T09:40:33.464Z,36.38
2023-04-02T09:41:35.099Z,38.10
2023-04-02T09:42:33.399Z,37.97
2023-04-02T09:43:33.387Z,37.09
2023-04-02T09:44:33.387Z,37.64
2023-04-02T09:45:33.553Z,38.38
2023-04-02T09:46:33.391Z,37.46
2023-04-02T09:47:33.333Z,36.60
2023-04-02T09:48:33.315Z,39.01
2023-04-02T09:49:33.300Z,37.51
2023-04-02T09:50:33.274Z,37.04
2023-04-02T09:51:34.214Z,36.85
2023-04-02T09:52:33.247Z,37.13
2023-04-02T09:53:33.227Z,39.55
2023-04-02T09:54:33.202Z,36.14
2023-04-02T09:55:33.337Z,37.13
2023-04-02T09:56:33.149Z,38.45
2023-04-02T09:57:33.170Z,37.91
2023-04-02T09:58:33.121Z,38.27
2023-04-02T09:59:33.112Z,37.67
2023-04-02T10:00:33.110Z,39.03
2023-04-02T10:01:33.196Z,38.93
2023-04-02T10:02:33.081Z,40.61
2023-04-02T10:03:33.104Z,38.61
2023-04-02T10:04:33.089Z,37.54
2023-04-02T10:05:40.690Z,39.97
2023-04-02T10:06:34.015Z,40.21
2023-04-02T10:07:32.990Z,40.31
2023-04-02T10:08:32.972Z,40.37
2023-04-02T10:09:32.958Z,41.63
2023-04-02T10:10:32.987Z,40.74
2023-04-02T10:11:43.776Z,42.43
2023-04-02T10:12:33.923Z,42.51
2023-04-02T10:13:32.894Z,42.83
2023-04-02T10:14:32.898Z,43.41
2023-04-02T10:15:32.944Z,43.37
2023-04-02T10:16:32.995Z,43.44
2023-04-02T10:17:32.895Z,42.37
2023-04-02T10:18:32.833Z,42.80
2023-04-02T10:19:33.693Z,42.13
2023-04-02T10:20:36.445Z,43.74
2023-04-02T10:21:33.801Z,43.88
2023-04-02T10:22:32.781Z,43.94
2023-04-02T10:23:32.757Z,43.84
2023-04-02T10:24:32.797Z,44.00
2023-04-02T10:25:32.852Z,42.87
2023-04-02T10:26:32.881Z,44.04
2023-04-02T10:27:32.916Z,43.96
2023-04-02T10:28:32.958Z,43.64
2023-04-02T10:29:33.004Z,43.30
2023-04-02T10:30:33.095Z,44.66
2023-04-02T10:31:33.082Z,43.45
2023-04-02T10:32:33.115Z,41.03
2023-04-02T10:33:33.153Z,41.79
2023-04-02T10:34:33.197Z,40.82
2023-04-02T10:35:33.300Z,41.65
2023-04-02T10:36:33.281Z,40.51
2023-04-02T10:37:33.341Z,43.48
2023-04-02T10:38:33.374Z,42.20
2023-04-02T10:39:33.412Z,41.36
2023-04-02T10:40:33.454Z,42.96
2023-04-02T10:41:33.548Z,40.80
2023-04-02T10:42:33.540Z,41.97
2023-04-02T10:43:33.601Z,42.98
2023-04-02T10:44:33.642Z,41.54
2023-04-02T10:45:33.966Z,41.74
2023-04-02T10:46:33.748Z,40.30
2023-04-02T10:47:33.855Z,42.13
2023-04-02T10:48:33.825Z,42.67
2023-04-02T10:49:33.968Z,41.23
2023-04-02T10:50:33.920Z,41.90
2023-04-02T10:51:33.973Z,41.08
2023-04-02T10:52:34.029Z,42.57
2023-04-02T10:53:34.067Z,42.16
2023-04-02T10:54:34.188Z,41.46
2023-04-02T10:55:34.463Z,44.14
2023-04-02T10:56:44.021Z,42.71
2023-04-02T10:57:35.327Z,42.84
2023-04-02T10:58:34.187Z,43.24
2023-04-02T10:59:34.210Z,43.59
2023-04-02T11:00:34.156Z,44.50
2023-04-02T11:01:34.183Z,43.27
2023-04-02T11:02:34.172Z,43.42
2023-04-02T11:03:34.147Z,42.24
2023-04-02T11:04:34.093Z,42.37
2023-04-02T11:05:34.442Z,42.17
2023-04-02T11:06:34.132Z,43.95
2023-04-02T11:07:34.198Z,43.15
2023-04-02T11:08:34.248Z,44.37
2023-04-02T11:09:34.295Z,42.72
2023-04-02T11:10:34.337Z,41.49
2023-04-02T11:11:34.394Z,44.55
2023-04-02T11:12:36.602Z,42.67
2023-04-02T11:13:35.419Z,42.84
2023-04-02T11:14:34.416Z,43.02
2023-04-02T11:15:34.632Z,43.20
2023-04-02T11:17:34.390Z,41.45
2023-04-02T11:18:34.376Z,43.26
2023-04-02T11:19:34.330Z,41.24
2023-04-02T11:20:34.303Z,39.67
2023-04-02T11:21:34.927Z,41.26
2023-04-02T11:22:34.365Z,40.83
2023-04-02T11:23:34.434Z,40.12
2023-04-02T11:24:34.492Z,39.95
2023-04-02T11:25:34.636Z,40.24
2023-04-02T11:26:34.563Z,40.94
2023-04-02T11:27:34.612Z,39.18
2023-04-02T11:28:34.659Z,39.29
2023-04-02T11:29:35.225Z,39.94
2023-04-02T11:30:34.771Z,39.66
2023-04-02T11:31:34.824Z,40.41
2023-04-02T11:32:34.906Z,39.53
2023-04-02T11:33:39.945Z,38.98
2023-04-02T11:34:35.924Z,39.15
2023-04-02T11:35:35.203Z,39.13
2023-04-02T11:36:34.879Z,39.79
2023-04-02T11:37:34.882Z,39.44
2023-04-02T11:38:34.850Z,39.90
2023-04-02T11:39:34.852Z,38.19
2023-04-02T11:40:34.821Z,39.46
2023-04-02T11:41:34.806Z,38.55
2023-04-02T11:42:34.788Z,40.27
2023-04-02T11:43:34.828Z,38.58
2023-04-02T11:44:34.883Z,40.18
2023-04-02T11:45:43.103Z,40.30
2023-04-02T11:46:35.942Z,40.42
2023-04-02T11:47:34.925Z,40.32
2023-04-02T11:48:34.885Z,40.27
2023-04-02T11:49:34.881Z,39.74
2023-04-02T11:50:34.867Z,38.87
2023-04-02T11:51:34.838Z,40.61
2023-04-02T11:52:34.830Z,38.08
2023-04-02T11:53:34.809Z,37.83
2023-04-02T11:54:34.801Z,39.11
2023-04-02T11:55:35.234Z,36.50
2023-04-02T11:56:34.867Z,40.43
2023-04-02T11:57:34.971Z,38.13
2023-04-02T11:58:34.976Z,37.73
2023-04-02T11:59:35.033Z,38.07
2023-04-02T12:00:35.183Z,39.34
2023-04-02T12:01:35.131Z,37.94
2023-04-02T12:02:35.230Z,37.70
2023-04-02T12:03:35.207Z,38.58
2023-04-02T12:04:35.247Z,37.61
2023-04-02T12:05:35.350Z,38.41
2023-04-02T12:06:35.312Z,36.98
2023-04-02T12:07:35.356Z,38.59
2023-04-02T12:08:44.278Z,36.81
2023-04-02T12:09:36.399Z,36.95
2023-04-02T12:10:35.383Z,37.34
2023-04-02T12:11:35.372Z,38.07
2023-04-02T12:12:35.380Z,38.50
2023-04-02T12:13:35.353Z,38.43
2023-04-02T12:14:35.383Z,39.61
2023-04-02T12:15:35.908Z,38.75
2023-04-02T12:16:36.264Z,40.10
2023-04-02T12:17:35.358Z,38.17
2023-04-02T12:18:35.372Z,38.78
2023-04-02T12:19:35.426Z,38.14
2023-04-02T12:20:35.664Z,40.20
2023-04-02T12:21:35.553Z,40.74
2023-04-02T12:22:35.591Z,40.25
2023-04-02T12:23:35.666Z,39.57
2023-04-02T12:24:35.709Z,38.90
2023-04-02T12:25:35.773Z,38.61
2023-04-02T12:26:35.841Z,39.46
2023-04-02T12:27:35.890Z,40.19
2023-04-02T12:28:35.942Z,40.13
2023-04-02T12:29:36.045Z,40.19
2023-04-02T12:30:36.296Z,37.82
2023-04-02T12:31:36.099Z,37.86
2023-04-02T12:32:36.790Z,39.49
2023-04-02T12:33:36.746Z,37.65
2023-04-02T12:34:36.254Z,37.42
2023-04-02T12:35:36.251Z,37.08
2023-04-02T12:36:36.746Z,37.24
2023-04-02T12:37:36.290Z,38.21
2023-04-02T12:38:36.325Z,39.51
2023-04-02T12:39:36.383Z,35.63
2023-04-02T12:40:36.625Z,39.07
2023-04-02T12:41:36.481Z,39.08
2023-04-02T12:42:36.533Z,40.58
2023-04-02T12:43:36.572Z,39.49
2023-04-02T12:44:36.625Z,38.10
2023-04-02T12:45:36.666Z,39.73
2023-04-02T12:46:36.840Z,39.63
2023-04-02T12:47:36.779Z,40.20
2023-04-02T12:48:36.806Z,37.80
2023-04-02T12:49:36.930Z,38.70
2023-04-02T12:50:37.190Z,40.57
2023-04-02T12:51:36.985Z,39.46
2023-04-02T12:52:37.023Z,38.28
2023-04-02T12:53:37.060Z,38.88